Time;durP1;ratioP1;P1;durP2;ratioP2;P2;SDS_P1;SDS_P2;PMS_P1;PMS_P2;Temp;Humidity;BMP_temperature;BMP_pressure;BME280_temperature;BME280_humidity;BME280_pressure;Samples;Min_cycle;Max_cycle;Signal;HPM_P1;HPM_P2
2024/04/05 00:01:43;;;;;;;3.83;1.55;;;;;;;9.73;100.00;98179.16;6107690;19;20011;-70
2024/04/05 00:03:43;;;;;;;4.28;1.55;;;;;;;9.70;100.00;98177.16;6108455;19;20007;-70
2024/04/05 00:05:43;;;;;;;5.18;1.33;;;;;;;9.65;100.00;98189.34;6107446;19;20455;-71
2024/04/05 00:07:43;;;;;;;4.13;1.40;;;;;;;9.67;100.00;98178.69;6107886;19;20346;-71
2024/04/05 00:09:44;;;;;;;3.33;1.50;;;;;;;9.66;100.00;98185.38;6105795;19;20038;-71
2024/04/05 00:11:44;;;;;;;4.28;1.70;;;;;;;9.72;100.00;98177.56;6107803;19;20003;-71
2024/04/05 00:13:45;;;;;;;3.30;1.15;;;;;;;9.71;100.00;98176.78;6107481;19;20007;-71
2024/04/05 00:15:45;;;;;;;5.22;1.27;;;;;;;9.67;100.00;98178.69;6096462;19;20013;-71
2024/04/05 00:17:46;;;;;;;4.65;1.50;;;;;;;9.67;100.00;98175.94;6106175;19;20007;-71
2024/04/05 00:19:46;;;;;;;5.00;1.50;;;;;;;9.69;100.00;98190.19;6107044;19;20006;-71
2024/04/05 00:21:47;;;;;;;3.78;1.50;;;;;;;9.67;100.00;98175.94;6107694;19;20026;-71
2024/04/05 00:23:49;;;;;;;4.97;1.88;;;;;;;9.67;100.00;98178.69;6105763;19;20003;-70
2024/04/05 00:26:04;;;;;;;7.00;1.52;;;;;;;9.66;100.00;98184.59;6105715;19;20036;-70
2024/04/05 00:28:05;;;;;;;5.18;1.55;;;;;;;9.57;100.00;98182.94;6105316;19;20459;-70
2024/04/05 00:30:07;;;;;;;5.13;1.60;;;;;;;9.54;100.00;98175.41;6105674;19;20023;-70
2024/04/05 00:32:07;;;;;;;6.85;1.77;;;;;;;9.48;100.00;98182.44;6107439;19;20014;-70
2024/04/05 00:34:07;;;;;;;3.60;1.23;;;;;;;9.47;100.00;98183.63;6106369;19;20031;-70
2024/04/05 00:36:11;;;;;;;4.05;1.50;;;;;;;9.42;100.00;98180.41;6105817;19;20013;-70
2024/04/05 00:38:11;;;;;;;3.92;1.48;;;;;;;9.41;100.00;98176.84;6104217;19;20030;-70
2024/04/05 00:40:13;;;;;;;4.43;1.40;;;;;;;9.35;100.00;98175.59;6106737;19;20046;-70
2024/04/05 00:42:13;;;;;;;4.35;1.48;;;;;;;9.34;100.00;98174.00;6106159;19;20007;-71
2024/04/05 00:44:14;;;;;;;4.38;1.38;;;;;;;9.38;100.00;98172.09;6105091;19;20074;-71
2024/04/05 00:46:14;;;;;;;4.35;1.25;;;;;;;9.42;100.00;98169.34;6105149;19;20088;-71
2024/04/05 00:48:16;;;;;;;5.20;1.30;;;;;;;9.41;100.00;98173.28;6105874;19;20482;-71
2024/04/05 00:50:17;;;;;;;5.25;1.60;;;;;;;9.36;100.00;98170.88;6106367;19;20015;-71
2024/04/05 00:52:17;;;;;;;6.22;1.70;;;;;;;9.34;100.00;98179.50;6109151;19;20299;-71
2024/04/05 00:54:20;;;;;;;4.80;1.52;;;;;;;9.31;100.00;98185.00;6113142;19;20281;-71
2024/04/05 00:56:21;;;;;;;3.85;1.70;;;;;;;9.26;100.00;98178.63;6113227;19;20027;-71
2024/04/05 00:58:21;;;;;;;8.13;2.55;;;;;;;9.21;100.00;98184.50;6110769;19;20034;-70
2024/04/05 01:00:24;;;;;;;3.10;1.30;;;;;;;9.18;100.00;98182.47;6113115;19;20040;-70
2024/04/05 01:02:24;;;;;;;3.75;1.60;;;;;;;9.17;100.00;98185.63;6111838;19;20343;-70
2024/04/05 01:04:24;;;;;;;4.82;1.42;;;;;;;9.16;100.00;98187.59;6112441;19;20007;-70
2024/04/05 01:06:25;;;;;;;3.70;1.55;;;;;;;9.17;100.00;98196.66;6111039;19;20018;-70
2024/04/05 01:08:25;;;;;;;2.95;1.50;;;;;;;9.20;100.00;98191.19;6110996;19;20010;-70
2024/04/05 01:10:25;;;;;;;2.95;1.40;;;;;;;9.20;100.00;98193.16;6112934;19;20017;-70
2024/04/05 01:12:26;;;;;;;5.22;1.52;;;;;;;9.21;100.00;98197.50;6112451;19;20028;-70
2024/04/05 01:14:26;;;;;;;3.83;1.60;;;;;;;9.21;100.00;98189.22;6112266;19;20366;-70
2024/04/05 01:16:27;;;;;;;5.22;1.52;;;;;;;9.22;100.00;98190.81;6107263;19;20014;-70
2024/04/05 01:18:27;;;;;;;3.78;1.48;;;;;;;9.19;100.00;98188.81;6101844;19;20515;-70
2024/04/05 01:20:30;;;;;;;3.17;1.38;;;;;;;9.21;100.00;98192.00;6103737;19;20003;-70
2024/04/05 01:22:40;;;;;;;5.75;1.73;;;;;;;9.15;100.00;98190.72;6103299;19;20074;-70
2024/04/05 01:24:40;;;;;;;4.78;1.98;;;;;;;9.07;100.00;98186.28;6104460;19;20002;-70
2024/04/05 01:26:41;;;;;;;6.97;1.40;;;;;;;9.01;100.00;98194.88;6104062;19;20322;-70
2024/04/05 01:28:41;;;;;;;3.47;1.60;;;;;;;8.92;100.00;98190.81;6103158;19;19999;-70
2024/04/05 01:30:41;;;;;;;5.78;1.52;;;;;;;8.85;100.00;98183.25;6103899;19;19998;-70
2024/04/05 01:32:52;;;;;;;6.55;2.08;;;;;;;8.77;100.00;98192.63;6104144;19;20002;-70
2024/04/05 01:34:52;;;;;;;3.08;1.55;;;;;;;8.69;100.00;98190.94;6102495;19;20003;-70
2024/04/05 01:36:52;;;;;;;7.53;1.58;;;;;;;8.65;100.00;98185.34;6102506;19;20022;-70
2024/04/05 01:38:53;;;;;;;2.60;1.27;;;;;;;8.59;100.00;98186.81;6102860;19;20495;-70
2024/04/05 01:40:53;;;;;;;3.63;1.60;;;;;;;8.52;100.00;98194.19;6102880;19;20102;-70
2024/04/05 01:42:53;;;;;;;3.40;1.58;;;;;;;8.47;100.00;98189.81;6102772;19;20018;-70
2024/04/05 01:44:54;;;;;;;4.40;1.40;;;;;;;8.37;100.00;98182.97;6102232;19;20015;-70
2024/04/05 01:46:54;;;;;;;4.15;1.52;;;;;;;8.34;100.00;98185.63;6101407;19;20558;-70
2024/04/05 01:48:54;;;;;;;5.55;2.53;;;;;;;8.27;100.00;98178.03;6102792;19;20017;-70
2024/04/05 01:50:55;;;;;;;6.25;1.70;;;;;;;8.25;100.00;98176.81;6101423;19;20340;-70
2024/04/05 01:52:55;;;;;;;5.53;2.45;;;;;;;8.23;100.00;98182.69;6102447;19;20365;-70
2024/04/05 01:54:56;;;;;;;3.40;1.45;;;;;;;8.16;100.00;98180.63;6102618;19;20032;-70
2024/04/05 01:56:57;;;;;;;6.40;1.98;;;;;;;8.12;100.00;98176.25;6103309;19;20014;-70
2024/04/05 01:58:57;;;;;;;3.60;1.33;;;;;;;8.09;100.00;98175.00;6102365;19;20030;-70
2024/04/05 02:01:03;;;;;;;9.70;2.42;;;;;;;8.04;100.00;98171.78;6103013;19;20023;-70
2024/04/05 02:03:04;;;;;;;6.88;1.60;;;;;;;7.93;100.00;98171.56;6099774;19;20056;-71
2024/04/05 02:05:05;;;;;;;5.65;1.65;;;;;;;7.87;100.00;98170.31;6102581;19;20026;-71
2024/04/05 02:07:05;;;;;;;3.03;1.48;;;;;;;7.80;100.00;98165.47;6101718;19;20022;-70
2024/04/05 02:09:06;;;;;;;3.83;1.77;;;;;;;7.72;100.00;98157.44;6102155;19;20007;-70
2024/04/05 02:11:07;;;;;;;5.45;1.83;;;;;;;7.67;100.00;98168.75;6102979;19;20003;-70
2024/04/05 02:13:08;;;;;;;1.80;1.30;;;;;;;7.55;100.00;98159.53;6103106;19;20030;-70
2024/04/05 02:15:08;;;;;;;5.95;1.75;;;;;;;7.51;100.00;98161.41;6101637;19;20030;-70
2024/04/05 02:17:09;;;;;;;3.35;1.60;;;;;;;7.50;100.00;98159.00;6107424;19;20385;-70
2024/04/05 02:19:09;;;;;;;5.68;1.83;;;;;;;7.57;100.00;98162.69;6109950;19;20393;-70
2024/04/05 02:21:10;;;;;;;5.82;1.60;;;;;;;7.64;100.00;98162.03;6109695;19;20036;-70
2024/04/05 02:23:10;;;;;;;6.95;1.98;;;;;;;7.71;100.00;98156.66;6109804;19;20037;-70
2024/04/05 02:25:10;;;;;;;2.97;2.38;;;;;;;7.80;100.00;98153.66;6109434;19;20467;-70
2024/04/05 02:27:10;;;;;;;4.88;1.58;;;;;;;7.85;100.00;98151.38;6109201;19;20007;-70
2024/04/05 02:29:12;;;;;;;3.83;1.20;;;;;;;7.92;100.00;98158.97;6109169;19;20333;-70
2024/04/05 02:31:12;;;;;;;4.10;1.58;;;;;;;7.99;100.00;98169.31;6109616;19;20343;-70
2024/04/05 02:33:12;;;;;;;2.25;1.17;;;;;;;8.03;100.00;98156.41;6110958;19;20014;-70
2024/04/05 02:35:13;;;;;;;3.83;1.40;;;;;;;8.10;100.00;98162.00;6107991;19;20018;-70
2024/04/05 02:37:13;;;;;;;5.95;1.58;;;;;;;8.17;100.00;98164.88;6109355;19;20010;-70
2024/04/05 02:39:13;;;;;;;6.65;1.50;;;;;;;8.23;100.00;98163.41;6109369;19;20015;-70
2024/04/05 02:41:14;;;;;;;3.45;1.65;;;;;;;8.34;100.00;98167.13;6110018;19;20010;-70
2024/04/05 02:43:15;;;;;;;4.07;1.60;;;;;;;8.57;100.00;98166.31;6109011;19;20010;-70
2024/04/05 02:45:15;;;;;;;5.80;1.60;;;;;;;8.67;100.00;98166.44;6110512;19;20034;-70
2024/04/05 02:47:15;;;;;;;3.35;1.70;;;;;;;8.74;100.00;98168.50;6109485;19;20014;-70
2024/04/05 02:49:16;;;;;;;5.00;1.60;;;;;;;8.79;100.00;98168.19;6108297;19;20253;-70
2024/04/05 02:51:16;;;;;;;4.07;1.38;;;;;;;8.83;100.00;98179.28;6109319;19;20002;-70
2024/04/05 02:53:17;;;;;;;2.60;1.50;;;;;;;8.85;100.00;98171.41;6109502;19;20379;-70
2024/04/05 02:55:17;;;;;;;4.78;1.77;;;;;;;8.90;100.00;98174.66;6109611;19;20095;-70
2024/04/05 02:57:17;;;;;;;3.08;1.50;;;;;;;8.91;100.00;98170.72;6108040;19;20034;-70
2024/04/05 02:59:18;;;;;;;4.88;1.83;;;;;;;8.94;100.00;98172.75;6108485;19;20007;-70
2024/04/05 03:01:18;;;;;;;3.08;1.48;;;;;;;9.02;100.00;98179.16;6109599;19;20010;-70
2024/04/05 03:03:18;;;;;;;5.05;2.00;;;;;;;9.05;100.00;98164.59;6108770;19;20044;-70
2024/04/05 03:05:18;;;;;;;5.70;2.17;;;;;;;9.10;100.00;98178.06;6109369;19;20017;-70
2024/04/05 03:07:19;;;;;;;5.13;1.50;;;;;;;9.14;100.00;98180.88;6107823;19;20028;-70
2024/04/05 03:09:19;;;;;;;4.68;1.50;;;;;;;9.15;100.00;98185.22;6107405;19;20007;-70
2024/04/05 03:11:20;;;;;;;4.60;2.22;;;;;;;9.22;100.00;98185.31;6110064;19;20884;-70
2024/04/05 03:13:20;;;;;;;5.40;2.63;;;;;;;9.24;100.00;98194.78;6109529;19;20014;-70
2024/04/05 03:15:21;;;;;;;2.72;1.50;;;;;;;9.26;100.00;98188.88;6107296;19;20336;-70
2024/04/05 03:17:21;;;;;;;4.93;1.63;;;;;;;9.22;100.00;98188.84;6107608;19;20010;-70
2024/04/05 03:19:21;;;;;;;3.15;1.48;;;;;;;9.22;100.00;98186.09;6108816;19;20006;-70
2024/04/05 03:21:22;;;;;;;3.47;1.60;;;;;;;9.24;100.00;98186.50;6107769;19;20332;-70
2024/04/05 03:23:22;;;;;;;4.22;1.60;;;;;;;9.27;100.00;98190.50;6109420;19;20491;-70
2024/04/05 03:25:22;;;;;;;3.88;1.50;;;;;;;9.26;100.00;98189.69;6109197;19;20111;-70
2024/04/05 03:27:23;;;;;;;3.78;1.77;;;;;;;9.28;100.00;98189.31;6108029;19;20062;-70
2024/04/05 03:29:23;;;;;;;2.70;1.75;;;;;;;9.28;100.00;98190.13;6107772;19;20348;-70
2024/04/05 03:31:23;;;;;;;2.45;1.42;;;;;;;9.29;100.00;98186.19;6108598;19;20003;-70
2024/04/05 03:33:23;;;;;;;2.00;1.30;;;;;;;9.26;100.00;98184.16;6108858;19;20368;-70
2024/04/05 03:35:24;;;;;;;3.38;1.80;;;;;;;9.28;100.00;98179.06;6109404;19;20442;-71
2024/04/05 03:37:24;;;;;;;7.13;1.92;;;;;;;9.29;100.00;98182.63;6104963;19;20060;-70
2024/04/05 03:39:25;;;;;;;2.20;1.45;;;;;;;9.28;100.00;98179.06;6108094;19;20057;-70
2024/04/05 03:41:25;;;;;;;2.88;1.77;;;;;;;9.32;100.00;98179.09;6108386;19;20489;-70
2024/04/05 03:43:25;;;;;;;5.40;1.73;;;;;;;9.35;100.00;98189.41;6108072;19;20017;-70
2024/04/05 03:45:26;;;;;;;7.93;2.13;;;;;;;9.46;100.00;98193.09;6108478;19;20015;-70
2024/04/05 03:47:26;;;;;;;3.97;1.98;;;;;;;9.50;100.00;98191.13;6105488;19;20462;-70
2024/04/05 03:49:29;;;;;;;4.32;2.20;;;;;;;9.56;100.00;98192.41;6106771;19;20030;-70
2024/04/05 03:51:30;;;;;;;2.55;1.92;;;;;;;9.63;100.00;98199.19;6108438;19;20003;-70
2024/04/05 03:53:30;;;;;;;5.78;1.83;;;;;;;9.64;100.00;98196.03;6107539;19;20686;-70
2024/04/05 03:55:30;;;;;;;4.70;2.22;;;;;;;9.64;100.00;98198.78;6107820;19;20010;-70
2024/04/05 03:57:31;;;;;;;4.25;1.75;;;;;;;9.65;100.00;98194.84;6106745;19;20019;-70
2024/04/05 03:59:32;;;;;;;5.07;1.70;;;;;;;9.66;100.00;98195.66;6107168;19;20407;-70
2024/04/05 04:01:32;;;;;;;3.13;1.60;;;;;;;9.64;100.00;98198.78;6106942;19;20006;-70
2024/04/05 04:03:32;;;;;;;5.18;2.00;;;;;;;9.62;100.00;98192.06;6107257;19;19995;-70
2024/04/05 04:05:33;;;;;;;3.78;1.77;;;;;;;9.61;100.00;98199.56;6106946;19;19999;-70
2024/04/05 04:07:33;;;;;;;4.45;1.65;;;;;;;9.62;100.00;98192.06;6106460;19;20768;-70
2024/04/05 04:09:33;;;;;;;3.42;2.00;;;;;;;9.58;100.00;98195.56;6106012;19;20047;-70
2024/04/05 04:11:34;;;;;;;3.78;1.88;;;;;;;9.63;100.00;98202.72;6107595;19;20364;-70
2024/04/05 04:13:34;;;;;;;5.32;2.17;;;;;;;9.60;100.00;98197.16;6106768;19;20011;-70
2024/04/05 04:15:35;;;;;;;4.65;1.88;;;;;;;9.57;100.00;98195.94;6106657;19;20328;-70
2024/04/05 04:17:35;;;;;;;4.50;1.98;;;;;;;9.60;100.00;98195.22;6105966;19;20007;-70
2024/04/05 04:19:36;;;;;;;3.97;1.70;;;;;;;9.56;100.00;98195.16;6106521;19;20369;-70
2024/04/05 04:21:37;;;;;;;5.07;2.20;;;;;;;9.59;100.00;98201.88;6107580;19;20032;-70
2024/04/05 04:23:38;;;;;;;6.50;2.20;;;;;;;9.58;100.00;98209.38;6106009;19;20352;-70
2024/04/05 04:25:39;;;;;;;6.05;2.30;;;;;;;9.56;100.00;98202.66;6107659;19;20107;-70
2024/04/05 04:27:39;;;;;;;4.45;2.08;;;;;;;9.55;100.00;98201.06;6110658;19;20034;-70
2024/04/05 04:29:39;;;;;;;6.13;2.20;;;;;;;9.61;100.00;98204.28;6111625;19;20788;-70
2024/04/05 04:31:40;;;;;;;3.95;2.22;;;;;;;9.60;100.00;98197.97;6111993;19;20015;-70
2024/04/05 04:33:40;;;;;;;5.85;2.45;;;;;;;9.60;100.00;98203.50;6112250;19;20027;-70
2024/04/05 04:35:45;;;;;;;2.65;2.00;;;;;;;9.62;100.00;98201.16;6112160;19;20411;-70
2024/04/05 04:37:45;;;;;;;7.40;2.40;;;;;;;9.66;100.00;98204.72;6112007;19;20018;-71
2024/04/05 04:39:46;;;;;;;3.95;1.77;;;;;;;9.70;100.00;98210.31;6111999;19;20455;-71
2024/04/05 04:41:47;;;;;;;5.40;2.47;;;;;;;9.70;100.00;98207.53;6112686;19;20005;-71
2024/04/05 04:43:47;;;;;;;3.85;2.22;;;;;;;9.70;100.00;98210.31;6111047;19;20032;-71
2024/04/05 04:45:47;;;;;;;3.83;2.50;;;;;;;9.71;100.00;98201.63;6110696;19;20428;-71
2024/04/05 04:47:48;;;;;;;5.10;1.95;;;;;;;9.79;100.00;98211.59;6111221;19;20003;-70
2024/04/05 04:49:48;;;;;;;4.63;2.20;;;;;;;9.84;100.00;98196.63;6111374;19;20013;-70
2024/04/05 04:51:48;;;;;;;3.90;1.88;;;;;;;9.85;100.00;98196.25;6111403;19;20335;-70
2024/04/05 04:53:49;;;;;;;4.57;1.95;;;;;;;9.84;100.00;98202.16;6110301;19;20308;-70
2024/04/05 04:55:49;;;;;;;3.95;1.70;;;;;;;9.86;100.00;98197.06;6111239;19;20007;-70
2024/04/05 04:57:50;;;;;;;5.72;2.15;;;;;;;9.91;100.00;98202.22;6111809;19;20010;-70
2024/04/05 04:59:51;;;;;;;5.43;2.40;;;;;;;9.92;100.00;98201.03;6109937;19;20013;-70
2024/04/05 05:01:51;;;;;;;5.60;2.38;;;;;;;9.92;100.00;98192.75;6110177;19;20124;-70
2024/04/05 05:03:52;;;;;;;6.07;1.90;;;;;;;9.93;100.00;98199.88;6110037;19;20038;-70
2024/04/05 05:05:53;;;;;;;6.05;2.00;;;;;;;9.92;100.00;98198.28;6110425;19;20002;-71
2024/04/05 05:07:53;;;;;;;5.00;2.00;;;;;;;9.92;100.00;98208.53;6109744;19;20349;-71
2024/04/05 05:09:54;;;;;;;6.90;2.20;;;;;;;9.92;100.00;98214.06;6111426;19;19998;-71
2024/04/05 05:11:54;;;;;;;2.67;2.25;;;;;;;9.96;100.00;98209.38;6111299;19;20155;-70
2024/04/05 05:13:54;;;;;;;3.65;1.75;;;;;;;9.96;100.00;98212.94;6110092;19;20010;-70
2024/04/05 05:15:55;;;;;;;5.60;2.28;;;;;;;9.96;100.00;98207.41;6099264;19;20074;-70
2024/04/05 05:17:55;;;;;;;3.10;1.88;;;;;;;9.95;100.00;98213.31;6107825;19;20002;-70
2024/04/05 05:19:55;;;;;;;3.40;1.67;;;;;;;9.96;100.00;98217.66;6110517;19;20333;-70
2024/04/05 05:21:56;;;;;;;3.90;1.80;;;;;;;9.95;100.00;98207.78;6110976;19;19998;-71
2024/04/05 05:23:57;;;;;;;6.20;2.20;;;;;;;10.00;100.00;98210.19;6110136;19;20030;-71
2024/04/05 05:25:57;;;;;;;4.15;2.20;;;;;;;10.01;100.00;98215.38;6110914;19;20783;-71
2024/04/05 05:27:58;;;;;;;3.97;1.83;;;;;;;10.05;100.00;98210.66;6109776;19;19999;-71
2024/04/05 05:29:58;;;;;;;6.05;2.20;;;;;;;10.02;100.00;98216.16;6109369;19;20482;-70
2024/04/05 05:31:58;;;;;;;7.70;2.17;;;;;;;10.02;100.00;98219.72;6108691;19;20007;-70
2024/04/05 05:33:59;;;;;;;3.47;1.90;;;;;;;10.00;100.00;98212.97;6108024;19;20007;-70
2024/04/05 05:35:59;;;;;;;4.80;2.05;;;;;;;10.04;100.00;98233.16;6103890;19;20023;-70
2024/04/05 05:38:00;;;;;;;4.15;2.00;;;;;;;10.04;100.00;98225.66;6107884;19;20002;-70
2024/04/05 05:40:02;;;;;;;7.65;2.38;;;;;;;10.06;100.00;98225.25;6109118;19;20094;-70
2024/04/05 05:42:02;;;;;;;5.03;2.25;;;;;;;10.12;100.00;98229.28;6109867;19;20003;-70
2024/04/05 05:44:03;;;;;;;4.72;1.70;;;;;;;10.17;100.00;98236.41;6108267;19;20002;-70
2024/04/05 05:46:05;;;;;;;5.38;1.98;;;;;;;10.18;100.00;98240.75;6108383;19;20360;-70
2024/04/05 05:48:06;;;;;;;;;;;;;;;10.27;100.00;98242.09;6109756;19;20044;-70
2024/04/05 05:50:09;;;;;;;3.75;1.90;;;;;;;10.28;100.00;98245.66;6110752;19;19918;-70
2024/04/05 05:52:10;;;;;;;3.83;1.85;;;;;;;10.30;100.00;98248.81;6110118;19;20070;-70
2024/04/05 05:54:10;;;;;;;4.57;2.38;;;;;;;10.32;100.00;98247.25;6109730;19;20386;-70
2024/04/05 05:56:10;;;;;;;4.20;2.20;;;;;;;10.39;100.00;98238.22;6109851;19;20010;-70
2024/04/05 05:58:10;;;;;;;2.80;1.90;;;;;;;10.42;100.00;98242.97;6108300;19;20543;-70
2024/04/05 06:00:13;;;;;;;5.15;2.40;;;;;;;10.50;100.00;98250.16;6110451;19;20082;-70
2024/04/05 06:02:15;;;;;;;7.07;2.28;;;;;;;10.60;100.00;98256.97;6110903;19;20026;-70
2024/04/05 06:04:16;;;;;;;10.13;2.80;;;;;;;10.65;100.00;98246.34;6110015;19;20045;-70
2024/04/05 06:06:17;;;;;;;4.80;2.70;;;;;;;10.70;100.00;98247.97;6110618;19;20010;-70
2024/04/05 06:08:17;;;;;;;2.53;2.10;;;;;;;10.80;100.00;98252.78;6108530;19;20387;-71
2024/04/05 06:10:18;;;;;;;7.10;2.50;;;;;;;10.84;100.00;98253.59;6108944;19;20431;-70
2024/04/05 06:12:18;;;;;;;5.57;2.20;;;;;;;10.88;100.00;98250.84;6106244;19;20324;-70
2024/04/05 06:14:18;;;;;;;7.05;2.65;;;;;;;10.95;100.00;98246.16;6108478;19;20021;-70
2024/04/05 06:16:19;;;;;;;4.15;2.20;;;;;;;10.93;100.00;98248.53;6104576;19;20311;-70
2024/04/05 06:18:19;;;;;;;5.95;2.42;;;;;;;10.96;100.00;98247.72;6100728;19;21032;-71
2024/04/05 06:20:20;;;;;;;7.00;3.05;;;;;;;11.03;100.00;98251.72;6101973;19;20012;-71
2024/04/05 06:22:21;;;;;;;6.55;2.17;;;;;;;11.15;100.00;98254.97;6101599;19;20199;-71
2024/04/05 06:24:21;;;;;;;7.50;2.80;;;;;;;11.21;100.00;98256.19;6102254;19;20090;-70
2024/04/05 06:26:21;;;;;;;5.47;2.17;;;;;;;11.29;100.00;98247.91;6101870;19;20027;-70
2024/04/05 06:28:22;;;;;;;6.13;2.33;;;;;;;11.36;100.00;98245.19;6100764;19;20321;-70
2024/04/05 06:30:22;;;;;;;6.72;2.40;;;;;;;11.44;100.00;98244.03;6102310;19;20021;-71
2024/04/05 06:32:23;;;;;;;4.05;2.20;;;;;;;11.56;100.00;98252.00;6102276;19;20518;-71
2024/04/05 06:34:24;;;;;;;7.68;3.30;;;;;;;11.63;100.00;98242.91;6101618;19;20346;-71
2024/04/05 06:36:24;;;;;;;5.70;2.92;;;;;;;11.69;100.00;98246.91;6102684;19;20014;-71
2024/04/05 06:38:25;;;;;;;5.53;2.33;;;;;;;11.73;100.00;98248.47;6098051;19;20002;-71
2024/04/05 06:40:26;;;;;;;5.35;2.10;;;;;;;11.79;100.00;98251.69;6099181;19;20082;-70
2024/04/05 06:42:27;;;;;;;4.35;2.00;;;;;;;11.87;100.00;98249.75;6100216;19;20471;-70
2024/04/05 06:44:31;;;;;;;7.15;2.25;;;;;;;11.87;100.00;98247.78;6100826;19;20514;-70
2024/04/05 06:46:32;;;;;;;4.85;2.42;;;;;;;11.86;100.00;98239.84;6102017;19;20010;-70
2024/04/05 06:48:32;;;;;;;4.63;2.20;;;;;;;11.85;100.00;98247.38;6100295;19;20208;-71
2024/04/05 06:50:32;;;;;;;6.80;2.47;;;;;;;11.86;100.00;98240.63;6099374;19;20526;-71
2024/04/05 06:52:33;;;;;;;4.78;1.85;;;;;;;11.87;100.00;98235.88;6102441;19;20010;-71
2024/04/05 06:54:39;;;;;;;4.57;1.50;;;;;;;11.88;100.00;98238.25;6101739;19;20007;-71
2024/04/05 06:56:40;;;;;;;4.93;1.90;;;;;;;11.92;100.00;98236.31;6102634;19;20373;-71
2024/04/05 06:58:40;;;;;;;4.05;1.77;;;;;;;11.97;100.00;98232.34;6101188;19;20676;-71
2024/04/05 07:00:41;;;;;;;5.63;2.10;;;;;;;12.01;100.00;98227.63;6102451;19;20010;-71
2024/04/05 07:02:42;;;;;;;3.08;1.73;;;;;;;12.06;100.00;98233.53;6102070;19;20007;-71
2024/04/05 07:04:43;;;;;;;3.88;2.10;;;;;;;12.06;100.00;98218.88;6101931;19;20461;-71
2024/04/05 07:06:43;;;;;;;6.25;2.00;;;;;;;12.05;100.00;98237.50;6102014;19;20474;-71
2024/04/05 07:08:45;;;;;;;4.88;1.80;;;;;;;12.07;100.00;98240.66;6099638;19;20365;-71
2024/04/05 07:10:46;;;;;;;5.18;1.95;;;;;;;12.13;100.00;98245.84;6101247;19;20010;-71
2024/04/05 07:12:48;;;;;;;5.32;1.98;;;;;;;12.17;100.00;98239.13;6101369;19;20011;-71
2024/04/05 07:14:48;;;;;;;3.03;1.73;;;;;;;12.16;100.00;98240.28;6102511;19;20018;-71
2024/04/05 07:16:49;;;;;;;2.92;1.73;;;;;;;12.19;100.00;98242.28;6105191;19;20352;-71
2024/04/05 07:18:50;;;;;;;5.30;1.90;;;;;;;12.21;100.00;98242.69;6108822;19;20580;-71
2024/04/05 07:20:51;;;;;;;2.63;1.70;;;;;;;12.28;100.00;98245.47;6109597;19;20014;-71
2024/04/05 07:22:52;;;;;;;5.65;2.17;;;;;;;12.39;100.00;98248.25;6109479;19;20039;-71
2024/04/05 07:24:53;;;;;;;5.13;1.80;;;;;;;12.44;100.00;98250.63;6108854;19;20010;-71
2024/04/05 07:26:53;;;;;;;3.88;1.60;;;;;;;12.47;100.00;98244.28;6108235;19;20014;-71
2024/04/05 07:28:53;;;;;;;3.72;1.58;;;;;;;12.53;100.00;98255.78;6109050;19;20015;-71
2024/04/05 07:30:54;;;;;;;5.28;1.63;;;;;;;12.57;100.00;98259.34;6109339;19;20036;-71
2024/04/05 07:32:54;;;;;;;5.25;1.63;;;;;;;12.66;100.00;98268.09;6107819;19;20010;-71
2024/04/05 07:34:55;;;;;;;5.20;1.70;;;;;;;12.69;100.00;98261.72;6108551;19;20491;-71
2024/04/05 07:36:55;;;;;;;6.57;1.77;;;;;;;12.75;100.00;98262.94;6107787;19;20002;-71
2024/04/05 07:38:55;;;;;;;3.55;1.63;;;;;;;12.77;100.00;98265.31;6108307;19;20002;-71
2024/04/05 07:41:05;;;;;;;6.65;1.90;;;;;;;12.77;100.00;98254.97;6108054;19;20002;-71
2024/04/05 07:43:06;;;;;;;3.10;1.95;;;;;;;12.72;100.00;98262.91;6109293;19;20002;-70
2024/04/05 07:45:07;;;;;;;3.13;1.60;;;;;;;12.65;100.00;98258.94;6108833;19;20006;-70
2024/04/05 07:47:07;;;;;;;5.55;1.50;;;;;;;12.60;100.00;98273.22;6107610;19;20007;-71
2024/04/05 07:49:09;;;;;;;8.40;1.73;;;;;;;12.60;100.00;98276.00;6108505;19;19998;-71
2024/04/05 07:51:12;;;;;;;3.83;1.58;;;;;;;12.63;100.00;98274.41;6108085;19;20002;-71
2024/04/05 07:53:13;;;;;;;3.55;1.67;;;;;;;12.70;100.00;98273.63;6109139;19;20029;-71
2024/04/05 07:55:13;;;;;;;3.17;1.70;;;;;;;12.79;100.00;98276.78;6108429;19;20003;-71
2024/04/05 07:57:13;;;;;;;4.88;1.60;;;;;;;12.89;100.00;98289.88;6107067;19;20023;-71
2024/04/05 07:59:14;;;;;;;2.80;1.65;;;;;;;13.01;100.00;98283.91;6105035;19;20389;-71
2024/04/05 08:01:18;;;;;;;4.35;1.58;;;;;;;13.13;100.00;98289.03;6108784;19;20031;-71
2024/04/05 08:03:18;;;;;;;5.82;1.70;;;;;;;13.24;100.00;98288.25;6108356;19;20021;-71
2024/04/05 08:05:19;;;;;;;3.42;1.60;;;;;;;13.39;100.00;98285.03;6107707;19;20403;-71
2024/04/05 08:07:19;;;;;;;4.03;1.60;;;;;;;13.43;100.00;98280.28;6107492;19;20035;-71
2024/04/05 08:09:19;;;;;;;2.38;1.63;;;;;;;13.52;100.00;98277.06;6105595;19;20007;-71
2024/04/05 08:11:20;;;;;;;2.65;1.50;;;;;;;13.68;100.00;98282.19;6108081;19;20690;-70
2024/04/05 08:13:20;;;;;;;4.97;1.67;;;;;;;13.73;100.00;98278.97;6108033;19;20044;-71
2024/04/05 08:15:20;;;;;;;3.85;1.80;;;;;;;13.81;100.00;98279.72;6108253;19;20028;-70
2024/04/05 08:17:21;;;;;;;6.65;1.80;;;;;;;13.90;100.00;98285.63;6107184;19;20011;-71
2024/04/05 08:19:21;;;;;;;4.97;1.55;;;;;;;14.10;100.00;98288.72;6107124;19;20007;-71
2024/04/05 08:21:22;;;;;;;4.90;1.58;;;;;;;14.13;100.00;98274.78;6108091;19;20002;-71
2024/04/05 08:23:22;;;;;;;2.70;1.40;;;;;;;14.18;100.00;98274.38;6107050;19;20015;-71
2024/04/05 08:25:22;;;;;;;2.83;1.40;;;;;;;14.26;100.00;98275.13;6107413;19;20465;-70
2024/04/05 08:27:22;;;;;;;3.50;1.40;;;;;;;14.38;100.00;98279.41;6107305;19;20354;-71
2024/04/05 08:29:26;;;;;;;5.07;1.58;;;;;;;14.49;100.00;98283.75;6106837;19;20074;-71
2024/04/05 08:31:28;;;;;;;2.83;1.13;;;;;;;14.55;100.00;98279.31;6107077;19;20062;-71
2024/04/05 08:33:28;;;;;;;4.53;1.30;;;;;;;14.58;100.00;98289.63;6107450;19;20015;-71
2024/04/05 08:35:28;;;;;;;2.63;1.30;;;;;;;14.62;100.00;98292.38;6107907;19;20022;-71
2024/04/05 08:37:29;;;;;;;4.43;1.52;;;;;;;14.69;100.00;98302.69;6106423;19;20044;-71
2024/04/05 08:39:29;;;;;;;2.60;1.50;;;;;;;14.73;100.00;98304.25;6106196;19;20035;-71
2024/04/05 08:41:31;;;;;;;4.78;1.33;;;;;;;14.79;100.00;98307.38;6107346;19;20454;-71
2024/04/05 08:43:38;;;;;;;2.78;1.15;;;;;;;14.94;100.00;98308.84;6107371;19;20007;-70
2024/04/05 08:45:39;;;;;;;3.53;1.30;;;;;;;14.98;100.00;98297.69;6107911;19;20418;-71
2024/04/05 08:47:40;;;;;;;5.07;1.50;;;;;;;15.01;100.00;98286.47;6106265;19;20007;-71
2024/04/05 08:49:46;;;;;;;3.70;1.20;;;;;;;15.08;100.00;98286.44;6105873;19;20042;-71
2024/04/05 08:51:46;;;;;;;3.03;1.20;;;;;;;15.12;100.00;98286.38;6106801;19;20010;-71
2024/04/05 08:53:47;;;;;;;2.65;1.65;;;;;;;15.23;100.00;98294.66;6107647;19;20011;-71
2024/04/05 08:55:47;;;;;;;5.03;1.85;;;;;;;15.21;100.00;98283.09;6106611;19;20357;-71
2024/04/05 08:57:48;;;;;;;3.10;1.27;;;;;;;15.26;100.00;98277.09;6106617;19;20078;-71
2024/04/05 08:59:49;;;;;;;5.70;1.63;;;;;;;15.22;100.00;98285.47;6103423;19;20010;-71
2024/04/05 09:01:51;;;;;;;2.08;1.00;;;;;;;15.21;100.00;98283.91;6107381;19;20006;-71
2024/04/05 09:03:51;;;;;;;1.55;1.02;;;;;;;15.28;100.00;98291.41;6106563;19;20010;-71
2024/04/05 09:05:54;;;;;;;2.35;1.20;;;;;;;15.34;100.00;98295.31;6106208;19;20351;-71
2024/04/05 09:08:08;;;;;;;3.00;1.10;;;;;;;15.37;100.00;98280.53;6104967;19;20439;-71
2024/04/05 09:10:14;;;;;;;4.18;1.17;;;;;;;15.42;100.00;98274.53;6105105;19;20023;-71
2024/04/05 09:12:21;;;;;;;3.03;1.08;;;;;;;15.45;100.00;98270.91;6106300;19;20013;-71
2024/04/05 09:14:21;;;;;;;4.00;1.20;;;;;;;15.50;100.00;98278.81;6112086;19;20397;-71
2024/04/05 09:16:23;;;;;;;2.05;0.98;;;;;;;15.51;100.00;98269.25;6111611;19;20010;-71
2024/04/05 09:18:25;;;;;;;2.53;1.10;;;;;;;15.60;100.00;98271.53;6112395;19;20058;-71
2024/04/05 09:20:29;;;;;;;3.73;1.40;;;;;;;15.62;100.00;98274.72;6111324;19;20035;-71
2024/04/05 09:22:29;;;;;;;3.00;1.30;;;;;;;15.62;100.00;98272.72;6111291;19;20006;-71
2024/04/05 09:24:29;;;;;;;2.50;1.40;;;;;;;15.67;100.00;98272.28;6111545;19;20043;-71
2024/04/05 09:26:30;;;;;;;2.20;1.05;;;;;;;15.69;100.00;98269.84;6112201;19;20366;-71